sensor_id;sensor_type;location;lat;lon;timestamp;P1;durP1;ratioP1;P2;durP2;ratioP2
32451;SDS011;45528;52.102;5.242;2024-01-10T00:01:23;0.8;;;0.6;;
32451;SDS011;45528;52.102;5.242;2024-01-10T00:04:35;0.4;;;0.4;;
32451;SDS011;45528;52.102;5.242;2024-01-10T00:06:11;2.21;;;0.6;;
32451;SDS011;45528;52.102;5.242;2024-01-10T00:07:47;1.2;;;0.6;;
32451;SDS011;45528;52.102;5.242;2024-01-10T00:09:26;2.0;;;0.5;;
32451;SDS011;45528;52.102;5.242;2024-01-10T00:12:39;1.7;;;0.6;;
32451;SDS011;45528;52.102;5.242;2024-01-10T00:14:15;1.7;;;0.6;;
32451;SDS011;45528;52.102;5.242;2024-01-10T00:15:51;2.9;;;0.9;;
32451;SDS011;45528;52.102;5.242;2024-01-10T00:19:03;0.6;;;0.6;;
32451;SDS011;45528;52.102;5.242;2024-01-10T00:20:42;1.8;;;1.0;;
32451;SDS011;45528;52.102;5.242;2024-01-10T00:22:19;0.4;;;0.4;;
32451;SDS011;45528;52.102;5.242;2024-01-10T00:25:32;0.5;;;0.5;;
32451;SDS011;45528;52.102;5.242;2024-01-10T00:27:08;1.0;;;0.6;;
32451;SDS011;45528;52.102;5.242;2024-01-10T00:28:44;0.5;;;0.5;;
32451;SDS011;45528;52.102;5.242;2024-01-10T00:30:21;0.7;;;0.7;;
32451;SDS011;45528;52.102;5.242;2024-01-10T00:33:34;1.11;;;0.6;;
32451;SDS011;45528;52.102;5.242;2024-01-10T00:35:10;0.6;;;0.5;;
32451;SDS011;45528;52.102;5.242;2024-01-10T00:36:46;1.4;;;0.5;;
32451;SDS011;45528;52.102;5.242;2024-01-10T00:39:58;2.1;;;0.8;;
32451;SDS011;45528;52.102;5.242;2024-01-10T00:41:34;1.2;;;0.7;;
32451;SDS011;45528;52.102;5.242;2024-01-10T00:43:10;1.11;;;0.8;;
32451;SDS011;45528;52.102;5.242;2024-01-10T00:46:22;0.5;;;0.5;;
32451;SDS011;45528;52.102;5.242;2024-01-10T00:47:59;1.2;;;0.4;;
32451;SDS011;45528;52.102;5.242;2024-01-10T00:49:35;2.4;;;0.7;;
32451;SDS011;45528;52.102;5.242;2024-01-10T00:51:11;1.4;;;1.11;;
32451;SDS011;45528;52.102;5.242;2024-01-10T00:54:23;1.8;;;1.2;;
32451;SDS011;45528;52.102;5.242;2024-01-10T00:55:59;1.3;;;0.4;;
32451;SDS011;45528;52.102;5.242;2024-01-10T00:57:35;1.8;;;0.6;;
32451;SDS011;45528;52.102;5.242;2024-01-10T01:00:47;0.8;;;0.5;;
32451;SDS011;45528;52.102;5.242;2024-01-10T01:02:23;3.2;;;0.8;;
32451;SDS011;45528;52.102;5.242;2024-01-10T01:04:03;1.9;;;0.6;;
32451;SDS011;45528;52.102;5.242;2024-01-10T01:07:15;0.7;;;0.7;;
32451;SDS011;45528;52.102;5.242;2024-01-10T01:08:51;2.6;;;1.0;;
32451;SDS011;45528;52.102;5.242;2024-01-10T01:10:27;1.5;;;1.4;;
32451;SDS011;45528;52.102;5.242;2024-01-10T01:13:40;2.1;;;0.8;;
32451;SDS011;45528;52.102;5.242;2024-01-10T01:15:16;0.7;;;0.5;;
32451;SDS011;45528;52.102;5.242;2024-01-10T01:16:52;0.9;;;0.9;;
32451;SDS011;45528;52.102;5.242;2024-01-10T01:18:28;0.8;;;0.6;;
32451;SDS011;45528;52.102;5.242;2024-01-10T01:21:42;0.5;;;0.5;;
32451;SDS011;45528;52.102;5.242;2024-01-10T01:23:18;1.0;;;0.9;;
32451;SDS011;45528;52.102;5.242;2024-01-10T01:24:54;0.6;;;0.6;;
32451;SDS011;45528;52.102;5.242;2024-01-10T01:28:06;1.0;;;1.0;;
32451;SDS011;45528;52.102;5.242;2024-01-10T01:29:43;0.9;;;0.5;;
32451;SDS011;45528;52.102;5.242;2024-01-10T01:31:19;1.7;;;0.5;;
32451;SDS011;45528;52.102;5.242;2024-01-10T01:34:31;0.8;;;0.8;;
32451;SDS011;45528;52.102;5.242;2024-01-10T01:36:07;0.5;;;0.5;;
32451;SDS011;45528;52.102;5.242;2024-01-10T01:37:43;0.9;;;0.7;;
32451;SDS011;45528;52.102;5.242;2024-01-10T01:39:20;0.7;;;0.6;;
32451;SDS011;45528;52.102;5.242;2024-01-10T01:42:32;2.21;;;1.4;;
32451;SDS011;45528;52.102;5.242;2024-01-10T01:44:08;1.0;;;0.9;;
32451;SDS011;45528;52.102;5.242;2024-01-10T01:45:44;0.8;;;0.8;;
32451;SDS011;45528;52.102;5.242;2024-01-10T01:48:56;0.5;;;0.5;;
32451;SDS011;45528;52.102;5.242;2024-01-10T01:50:32;0.6;;;0.4;;
32451;SDS011;45528;52.102;5.242;2024-01-10T01:52:08;1.6;;;0.8;;
32451;SDS011;45528;52.102;5.242;2024-01-10T01:55:23;2.9;;;1.0;;
32451;SDS011;45528;52.102;5.242;2024-01-10T01:57:00;0.5;;;0.5;;
32451;SDS011;45528;52.102;5.242;2024-01-10T01:58:36;0.5;;;0.5;;
32451;SDS011;45528;52.102;5.242;2024-01-10T02:00:13;0.9;;;0.5;;
32451;SDS011;45528;52.102;5.242;2024-01-10T02:03:26;0.8;;;0.5;;
32451;SDS011;45528;52.102;5.242;2024-01-10T02:05:02;1.6;;;0.7;;
32451;SDS011;45528;52.102;5.242;2024-01-10T02:06:39;1.2;;;0.7;;
32451;SDS011;45528;52.102;5.242;2024-01-10T02:09:51;0.5;;;0.5;;
32451;SDS011;45528;52.102;5.242;2024-01-10T02:11:27;0.4;;;0.4;;
32451;SDS011;45528;52.102;5.242;2024-01-10T02:13:04;2.8;;;0.9;;
32451;SDS011;45528;52.102;5.242;2024-01-10T02:16:16;0.6;;;0.5;;
32451;SDS011;45528;52.102;5.242;2024-01-10T02:17:52;0.8;;;0.4;;
32451;SDS011;45528;52.102;5.242;2024-01-10T02:19:28;1.0;;;0.6;;
32451;SDS011;45528;52.102;5.242;2024-01-10T02:22:43;1.0;;;0.5;;
32451;SDS011;45528;52.102;5.242;2024-01-10T02:24:20;0.3;;;0.3;;
32451;SDS011;45528;52.102;5.242;2024-01-10T02:25:56;0.5;;;0.5;;
32451;SDS011;45528;52.102;5.242;2024-01-10T02:27:33;0.8;;;0.8;;
32451;SDS011;45528;52.102;5.242;2024-01-10T02:30:47;1.4;;;0.7;;
32451;SDS011;45528;52.102;5.242;2024-01-10T02:32:23;1.6;;;0.8;;
32451;SDS011;45528;52.102;5.242;2024-01-10T02:34:02;0.6;;;0.6;;
32451;SDS011;45528;52.102;5.242;2024-01-10T02:37:14;1.0;;;0.7;;
32451;SDS011;45528;52.102;5.242;2024-01-10T02:38:50;2.0;;;1.0;;
32451;SDS011;45528;52.102;5.242;2024-01-10T02:40:26;1.2;;;0.8;;
32451;SDS011;45528;52.102;5.242;2024-01-10T02:42:02;0.8;;;0.7;;
32451;SDS011;45528;52.102;5.242;2024-01-10T02:45:14;1.3;;;1.2;;
32451;SDS011;45528;52.102;5.242;2024-01-10T02:46:50;1.7;;;1.0;;
32451;SDS011;45528;52.102;5.242;2024-01-10T02:48:27;0.5;;;0.5;;
32451;SDS011;45528;52.102;5.242;2024-01-10T02:51:40;2.8;;;0.7;;
32451;SDS011;45528;52.102;5.242;2024-01-10T02:53:16;0.8;;;0.7;;
32451;SDS011;45528;52.102;5.242;2024-01-10T02:54:52;1.0;;;0.9;;
32451;SDS011;45528;52.102;5.242;2024-01-10T02:58:04;1.6;;;0.8;;
32451;SDS011;45528;52.102;5.242;2024-01-10T02:59:40;1.9;;;0.7;;
32451;SDS011;45528;52.102;5.242;2024-01-10T03:01:16;2.0;;;1.11;;
32451;SDS011;45528;52.102;5.242;2024-01-10T03:04:28;0.8;;;0.8;;
32451;SDS011;45528;52.102;5.242;2024-01-10T03:06:05;1.5;;;0.9;;
32451;SDS011;45528;52.102;5.242;2024-01-10T03:07:41;0.6;;;0.6;;
32451;SDS011;45528;52.102;5.242;2024-01-10T03:09:17;0.7;;;0.5;;
32451;SDS011;45528;52.102;5.242;2024-01-10T03:12:29;1.2;;;1.0;;
32451;SDS011;45528;52.102;5.242;2024-01-10T03:14:09;1.7;;;1.4;;
32451;SDS011;45528;52.102;5.242;2024-01-10T03:15:46;0.6;;;0.5;;
32451;SDS011;45528;52.102;5.242;2024-01-10T03:18:58;0.4;;;0.4;;
32451;SDS011;45528;52.102;5.242;2024-01-10T03:20:35;1.0;;;0.8;;
32451;SDS011;45528;52.102;5.242;2024-01-10T03:22:12;0.7;;;0.6;;
32451;SDS011;45528;52.102;5.242;2024-01-10T03:25:24;1.5;;;1.3;;
32451;SDS011;45528;52.102;5.242;2024-01-10T03:27:00;1.3;;;0.9;;
32451;SDS011;45528;52.102;5.242;2024-01-10T03:28:36;1.3;;;0.8;;
32451;SDS011;45528;52.102;5.242;2024-01-10T03:30:12;0.5;;;0.5;;
32451;SDS011;45528;52.102;5.242;2024-01-10T03:33:24;1.5;;;1.2;;
32451;SDS011;45528;52.102;5.242;2024-01-10T03:35:00;1.5;;;1.0;;
32451;SDS011;45528;52.102;5.242;2024-01-10T03:36:36;2.4;;;0.8;;
32451;SDS011;45528;52.102;5.242;2024-01-10T03:39:49;1.2;;;1.0;;
32451;SDS011;45528;52.102;5.242;2024-01-10T03:41:25;0.5;;;0.5;;
32451;SDS011;45528;52.102;5.242;2024-01-10T03:43:01;1.11;;;0.9;;
32451;SDS011;45528;52.102;5.242;2024-01-10T03:46:13;2.1;;;0.8;;
32451;SDS011;45528;52.102;5.242;2024-01-10T03:47:51;0.5;;;0.5;;
32451;SDS011;45528;52.102;5.242;2024-01-10T03:49:27;2.9;;;0.9;;
32451;SDS011;45528;52.102;5.242;2024-01-10T03:52:39;0.6;;;0.6;;
32451;SDS011;45528;52.102;5.242;2024-01-10T03:54:15;2.9;;;0.6;;
32451;SDS011;45528;52.102;5.242;2024-01-10T03:55:51;3.2;;;1.2;;
32451;SDS011;45528;52.102;5.242;2024-01-10T03:57:27;2.21;;;0.9;;
32451;SDS011;45528;52.102;5.242;2024-01-10T04:00:45;0.8;;;0.8;;
32451;SDS011;45528;52.102;5.242;2024-01-10T04:02:21;1.0;;;0.9;;
32451;SDS011;45528;52.102;5.242;2024-01-10T04:03:57;1.11;;;0.7;;
32451;SDS011;45528;52.102;5.242;2024-01-10T04:07:09;2.8;;;0.7;;
32451;SDS011;45528;52.102;5.242;2024-01-10T04:08:45;1.5;;;0.8;;
32451;SDS011;45528;52.102;5.242;2024-01-10T04:10:21;4.0;;;0.9;;
32451;SDS011;45528;52.102;5.242;2024-01-10T04:13:33;1.4;;;0.8;;
32451;SDS011;45528;52.102;5.242;2024-01-10T04:15:10;0.7;;;0.7;;
32451;SDS011;45528;52.102;5.242;2024-01-10T04:16:47;1.0;;;0.5;;
32451;SDS011;45528;52.102;5.242;2024-01-10T04:18:23;0.5;;;0.5;;
32451;SDS011;45528;52.102;5.242;2024-01-10T04:21:35;1.4;;;0.6;;
32451;SDS011;45528;52.102;5.242;2024-01-10T04:23:11;1.11;;;1.0;;
32451;SDS011;45528;52.102;5.242;2024-01-10T04:24:47;1.3;;;0.7;;
32451;SDS011;45528;52.102;5.242;2024-01-10T04:27:59;1.2;;;0.6;;
32451;SDS011;45528;52.102;5.242;2024-01-10T04:29:35;0.6;;;0.5;;
32451;SDS011;45528;52.102;5.242;2024-01-10T04:31:12;1.2;;;1.0;;
32451;SDS011;45528;52.102;5.242;2024-01-10T04:34:25;2.1;;;0.9;;
32451;SDS011;45528;52.102;5.242;2024-01-10T04:36:01;0.8;;;0.5;;
32451;SDS011;45528;52.102;5.242;2024-01-10T04:37:37;1.11;;;0.6;;
32451;SDS011;45528;52.102;5.242;2024-01-10T04:39:13;2.5;;;0.8;;
32451;SDS011;45528;52.102;5.242;2024-01-10T04:42:25;1.11;;;1.0;;
32451;SDS011;45528;52.102;5.242;2024-01-10T04:44:01;1.7;;;1.2;;
32451;SDS011;45528;52.102;5.242;2024-01-10T04:45:37;0.5;;;0.5;;
32451;SDS011;45528;52.102;5.242;2024-01-10T04:48:49;2.9;;;1.0;;
32451;SDS011;45528;52.102;5.242;2024-01-10T04:50:25;0.9;;;0.6;;
32451;SDS011;45528;52.102;5.242;2024-01-10T04:52:01;1.4;;;0.8;;
32451;SDS011;45528;52.102;5.242;2024-01-10T04:55:13;2.31;;;0.8;;
32451;SDS011;45528;52.102;5.242;2024-01-10T04:56:49;0.6;;;0.6;;
32451;SDS011;45528;52.102;5.242;2024-01-10T04:58:25;2.9;;;0.9;;
32451;SDS011;45528;52.102;5.242;2024-01-10T05:01:37;1.9;;;0.9;;
32451;SDS011;45528;52.102;5.242;2024-01-10T05:03:13;2.1;;;0.6;;
32451;SDS011;45528;52.102;5.242;2024-01-10T05:04:49;0.7;;;0.7;;
32451;SDS011;45528;52.102;5.242;2024-01-10T05:06:25;1.9;;;0.9;;
32451;SDS011;45528;52.102;5.242;2024-01-10T05:09:38;1.7;;;1.0;;
32451;SDS011;45528;52.102;5.242;2024-01-10T05:11:14;4.2;;;1.0;;
32451;SDS011;45528;52.102;5.242;2024-01-10T05:12:51;0.8;;;0.4;;
32451;SDS011;45528;52.102;5.242;2024-01-10T05:16:03;2.21;;;1.11;;
32451;SDS011;45528;52.102;5.242;2024-01-10T05:17:40;0.6;;;0.6;;
32451;SDS011;45528;52.102;5.242;2024-01-10T05:19:16;1.7;;;1.11;;
32451;SDS011;45528;52.102;5.242;2024-01-10T05:22:28;4.61;;;0.8;;
32451;SDS011;45528;52.102;5.242;2024-01-10T05:24:05;0.4;;;0.4;;
32451;SDS011;45528;52.102;5.242;2024-01-10T05:25:41;1.6;;;0.9;;
32451;SDS011;45528;52.102;5.242;2024-01-10T05:28:53;2.9;;;0.9;;
32451;SDS011;45528;52.102;5.242;2024-01-10T05:30:29;1.11;;;0.7;;
32451;SDS011;45528;52.102;5.242;2024-01-10T05:32:05;0.5;;;0.5;;
32451;SDS011;45528;52.102;5.242;2024-01-10T05:33:41;0.9;;;0.8;;
32451;SDS011;45528;52.102;5.242;2024-01-10T05:36:53;2.8;;;0.9;;
32451;SDS011;45528;52.102;5.242;2024-01-10T05:38:29;0.8;;;0.7;;
32451;SDS011;45528;52.102;5.242;2024-01-10T05:40:06;1.4;;;0.8;;
32451;SDS011;45528;52.102;5.242;2024-01-10T05:43:19;4.61;;;0.9;;
32451;SDS011;45528;52.102;5.242;2024-01-10T05:44:55;1.3;;;1.0;;
32451;SDS011;45528;52.102;5.242;2024-01-10T05:46:31;1.0;;;1.0;;
32451;SDS011;45528;52.102;5.242;2024-01-10T05:49:43;1.6;;;0.9;;
32451;SDS011;45528;52.102;5.242;2024-01-10T05:51:19;1.11;;;0.7;;
32451;SDS011;45528;52.102;5.242;2024-01-10T05:52:55;10.4;;;0.9;;
32451;SDS011;45528;52.102;5.242;2024-01-10T05:54:31;0.9;;;0.6;;
32451;SDS011;45528;52.102;5.242;2024-01-10T05:57:47;1.0;;;0.9;;
32451;SDS011;45528;52.102;5.242;2024-01-10T05:59:23;1.2;;;0.8;;
32451;SDS011;45528;52.102;5.242;2024-01-10T06:00:59;0.9;;;0.7;;
32451;SDS011;45528;52.102;5.242;2024-01-10T06:04:11;2.4;;;0.9;;
32451;SDS011;45528;52.102;5.242;2024-01-10T06:05:47;1.0;;;0.9;;
32451;SDS011;45528;52.102;5.242;2024-01-10T06:07:23;0.9;;;0.7;;
32451;SDS011;45528;52.102;5.242;2024-01-10T06:10:35;0.5;;;0.5;;
32451;SDS011;45528;52.102;5.242;2024-01-10T06:12:11;0.9;;;0.7;;
32451;SDS011;45528;52.102;5.242;2024-01-10T06:13:48;5.5;;;1.0;;
32451;SDS011;45528;52.102;5.242;2024-01-10T06:17:00;1.2;;;1.11;;
32451;SDS011;45528;52.102;5.242;2024-01-10T06:18:36;3.2;;;1.2;;
32451;SDS011;45528;52.102;5.242;2024-01-10T06:20:12;1.4;;;0.7;;
32451;SDS011;45528;52.102;5.242;2024-01-10T06:21:48;1.0;;;0.9;;
32451;SDS011;45528;52.102;5.242;2024-01-10T06:25:00;1.5;;;0.7;;
32451;SDS011;45528;52.102;5.242;2024-01-10T06:26:36;0.7;;;0.7;;
32451;SDS011;45528;52.102;5.242;2024-01-10T06:28:12;0.6;;;0.6;;
32451;SDS011;45528;52.102;5.242;2024-01-10T06:31:24;0.9;;;0.7;;
32451;SDS011;45528;52.102;5.242;2024-01-10T06:33:00;1.0;;;0.7;;
32451;SDS011;45528;52.102;5.242;2024-01-10T06:34:36;2.0;;;0.9;;
32451;SDS011;45528;52.102;5.242;2024-01-10T06:37:48;3.6;;;1.11;;
32451;SDS011;45528;52.102;5.242;2024-01-10T06:39:24;2.0;;;0.6;;
32451;SDS011;45528;52.102;5.242;2024-01-10T06:41:00;1.2;;;0.8;;
32451;SDS011;45528;52.102;5.242;2024-01-10T06:44:12;1.0;;;0.8;;
32451;SDS011;45528;52.102;5.242;2024-01-10T06:45:49;1.0;;;0.9;;
32451;SDS011;45528;52.102;5.242;2024-01-10T06:47:25;1.5;;;1.0;;
32451;SDS011;45528;52.102;5.242;2024-01-10T06:49:01;1.4;;;0.7;;
32451;SDS011;45528;52.102;5.242;2024-01-10T06:52:13;2.6;;;0.9;;
32451;SDS011;45528;52.102;5.242;2024-01-10T06:53:49;3.0;;;0.9;;
32451;SDS011;45528;52.102;5.242;2024-01-10T06:55:26;0.8;;;0.7;;
32451;SDS011;45528;52.102;5.242;2024-01-10T06:58:38;2.7;;;1.3;;
32451;SDS011;45528;52.102;5.242;2024-01-10T07:00:15;3.6;;;0.6;;
32451;SDS011;45528;52.102;5.242;2024-01-10T07:01:52;2.6;;;0.8;;
32451;SDS011;45528;52.102;5.242;2024-01-10T07:05:09;1.7;;;1.0;;
32451;SDS011;45528;52.102;5.242;2024-01-10T07:06:45;1.7;;;1.6;;
32451;SDS011;45528;52.102;5.242;2024-01-10T07:08:21;1.2;;;1.11;;
32451;SDS011;45528;52.102;5.242;2024-01-10T07:09:57;0.6;;;0.6;;
32451;SDS011;45528;52.102;5.242;2024-01-10T07:13:09;0.4;;;0.4;;
32451;SDS011;45528;52.102;5.242;2024-01-10T07:14:45;0.5;;;0.5;;
32451;SDS011;45528;52.102;5.242;2024-01-10T07:16:21;0.9;;;0.8;;
32451;SDS011;45528;52.102;5.242;2024-01-10T07:19:33;1.4;;;0.7;;
32451;SDS011;45528;52.102;5.242;2024-01-10T07:21:10;1.4;;;1.3;;
32451;SDS011;45528;52.102;5.242;2024-01-10T07:22:46;0.6;;;0.6;;
32451;SDS011;45528;52.102;5.242;2024-01-10T07:25:58;5.6;;;1.6;;
32451;SDS011;45528;52.102;5.242;2024-01-10T07:27:37;2.8;;;1.2;;
32451;SDS011;45528;52.102;5.242;2024-01-10T07:29:13;1.8;;;1.2;;
32451;SDS011;45528;52.102;5.242;2024-01-10T07:30:49;2.0;;;1.3;;
32451;SDS011;45528;52.102;5.242;2024-01-10T07:34:01;1.11;;;1.0;;
32451;SDS011;45528;52.102;5.242;2024-01-10T07:35:37;1.0;;;0.9;;
32451;SDS011;45528;52.102;5.242;2024-01-10T07:37:13;1.0;;;1.0;;
32451;SDS011;45528;52.102;5.242;2024-01-10T07:40:26;2.1;;;1.3;;
32451;SDS011;45528;52.102;5.242;2024-01-10T07:42:02;2.8;;;1.3;;
32451;SDS011;45528;52.102;5.242;2024-01-10T07:43:39;1.11;;;0.8;;
32451;SDS011;45528;52.102;5.242;2024-01-10T07:46:51;0.8;;;0.8;;
32451;SDS011;45528;52.102;5.242;2024-01-10T07:48:27;1.6;;;0.8;;
32451;SDS011;45528;52.102;5.242;2024-01-10T07:50:04;1.5;;;0.6;;
32451;SDS011;45528;52.102;5.242;2024-01-10T07:53:16;1.3;;;1.0;;
32451;SDS011;45528;52.102;5.242;2024-01-10T07:54:53;4.1;;;1.3;;
32451;SDS011;45528;52.102;5.242;2024-01-10T07:56:29;7.2;;;2.4;;
32451;SDS011;45528;52.102;5.242;2024-01-10T07:58:06;2.6;;;1.5;;
32451;SDS011;45528;52.102;5.242;2024-01-10T08:01:18;0.8;;;0.8;;
32451;SDS011;45528;52.102;5.242;2024-01-10T08:02:54;1.8;;;0.9;;
32451;SDS011;45528;52.102;5.242;2024-01-10T08:04:30;1.0;;;0.8;;
32451;SDS011;45528;52.102;5.242;2024-01-10T08:07:42;2.4;;;1.0;;
32451;SDS011;45528;52.102;5.242;2024-01-10T08:09:18;2.7;;;0.8;;
32451;SDS011;45528;52.102;5.242;2024-01-10T08:10:55;2.9;;;1.11;;
32451;SDS011;45528;52.102;5.242;2024-01-10T08:14:11;1.4;;;1.11;;
32451;SDS011;45528;52.102;5.242;2024-01-10T08:15:47;1.8;;;1.3;;
32451;SDS011;45528;52.102;5.242;2024-01-10T08:17:23;1.7;;;1.4;;
32451;SDS011;45528;52.102;5.242;2024-01-10T08:18:59;2.7;;;1.5;;
32451;SDS011;45528;52.102;5.242;2024-01-10T08:22:11;0.6;;;0.6;;
32451;SDS011;45528;52.102;5.242;2024-01-10T08:23:47;1.9;;;1.2;;
32451;SDS011;45528;52.102;5.242;2024-01-10T08:25:23;1.9;;;0.8;;
32451;SDS011;45528;52.102;5.242;2024-01-10T08:28:35;1.5;;;0.8;;
32451;SDS011;45528;52.102;5.242;2024-01-10T08:30:12;3.5;;;0.9;;
32451;SDS011;45528;52.102;5.242;2024-01-10T08:31:48;0.6;;;0.6;;
32451;SDS011;45528;52.102;5.242;2024-01-10T08:35:00;1.7;;;1.2;;
32451;SDS011;45528;52.102;5.242;2024-01-10T08:36:36;1.3;;;1.2;;
32451;SDS011;45528;52.102;5.242;2024-01-10T08:38:12;1.8;;;0.8;;
32451;SDS011;45528;52.102;5.242;2024-01-10T08:39:48;0.9;;;0.6;;
32451;SDS011;45528;52.102;5.242;2024-01-10T08:43:00;2.1;;;1.7;;
32451;SDS011;45528;52.102;5.242;2024-01-10T08:44:36;3.5;;;1.3;;
32451;SDS011;45528;52.102;5.242;2024-01-10T08:46:12;1.7;;;0.9;;
32451;SDS011;45528;52.102;5.242;2024-01-10T08:49:25;5.2;;;1.7;;
32451;SDS011;45528;52.102;5.242;2024-01-10T08:51:01;5.6;;;1.2;;
32451;SDS011;45528;52.102;5.242;2024-01-10T08:52:37;3.0;;;0.8;;
32451;SDS011;45528;52.102;5.242;2024-01-10T08:55:49;2.4;;;2.1;;
32451;SDS011;45528;52.102;5.242;2024-01-10T08:57:25;2.8;;;1.2;;
32451;SDS011;45528;52.102;5.242;2024-01-10T08:59:01;6.1;;;1.5;;
32451;SDS011;45528;52.102;5.242;2024-01-10T09:02:13;1.0;;;0.9;;
32451;SDS011;45528;52.102;5.242;2024-01-10T09:03:49;2.0;;;1.2;;
32451;SDS011;45528;52.102;5.242;2024-01-10T09:05:27;1.4;;;1.0;;
32451;SDS011;45528;52.102;5.242;2024-01-10T09:07:03;2.21;;;1.3;;
32451;SDS011;45528;52.102;5.242;2024-01-10T09:10:15;2.8;;;1.3;;
32451;SDS011;45528;52.102;5.242;2024-01-10T09:11:51;6.3;;;1.0;;
32451;SDS011;45528;52.102;5.242;2024-01-10T09:13:27;2.0;;;1.5;;
32451;SDS011;45528;52.102;5.242;2024-01-10T09:16:40;2.21;;;1.5;;
32451;SDS011;45528;52.102;5.242;2024-01-10T09:18:16;2.21;;;1.2;;
32451;SDS011;45528;52.102;5.242;2024-01-10T09:19:52;1.7;;;1.2;;
32451;SDS011;45528;52.102;5.242;2024-01-10T09:23:05;1.0;;;0.9;;
32451;SDS011;45528;52.102;5.242;2024-01-10T09:24:41;3.0;;;1.9;;
32451;SDS011;45528;52.102;5.242;2024-01-10T09:26:17;2.7;;;1.9;;
32451;SDS011;45528;52.102;5.242;2024-01-10T09:29:30;2.21;;;1.2;;
32451;SDS011;45528;52.102;5.242;2024-01-10T09:31:06;3.9;;;1.5;;
32451;SDS011;45528;52.102;5.242;2024-01-10T09:32:42;2.9;;;0.8;;
32451;SDS011;45528;52.102;5.242;2024-01-10T09:34:18;3.4;;;1.9;;
32451;SDS011;45528;52.102;5.242;2024-01-10T09:37:30;1.3;;;1.0;;
32451;SDS011;45528;52.102;5.242;2024-01-10T09:39:06;2.1;;;1.4;;
32451;SDS011;45528;52.102;5.242;2024-01-10T09:40:42;1.9;;;1.2;;
32451;SDS011;45528;52.102;5.242;2024-01-10T09:43:55;2.31;;;1.2;;
32451;SDS011;45528;52.102;5.242;2024-01-10T09:45:31;3.4;;;1.11;;
32451;SDS011;45528;52.102;5.242;2024-01-10T09:47:11;6.6;;;1.6;;
32451;SDS011;45528;52.102;5.242;2024-01-10T09:50:26;4.2;;;1.6;;
32451;SDS011;45528;52.102;5.242;2024-01-10T09:52:03;1.8;;;0.7;;
32451;SDS011;45528;52.102;5.242;2024-01-10T09:53:44;2.5;;;1.3;;
32451;SDS011;45528;52.102;5.242;2024-01-10T09:55:24;5.2;;;1.11;;
32451;SDS011;45528;52.102;5.242;2024-01-10T09:58:44;3.2;;;1.0;;
32451;SDS011;45528;52.102;5.242;2024-01-10T10:00:24;3.0;;;1.3;;
32451;SDS011;45528;52.102;5.242;2024-01-10T10:02:01;1.9;;;0.7;;
32451;SDS011;45528;52.102;5.242;2024-01-10T10:03:39;3.2;;;1.4;;
32451;SDS011;45528;52.102;5.242;2024-01-10T10:07:01;3.2;;;1.5;;
32451;SDS011;45528;52.102;5.242;2024-01-10T10:08:37;1.8;;;0.9;;
32451;SDS011;45528;52.102;5.242;2024-01-10T10:10:13;1.3;;;1.0;;
32451;SDS011;45528;52.102;5.242;2024-01-10T10:13:29;2.5;;;1.9;;
32451;SDS011;45528;52.102;5.242;2024-01-10T10:15:08;1.9;;;1.3;;
32451;SDS011;45528;52.102;5.242;2024-01-10T10:16:46;5.6;;;1.3;;
32451;SDS011;45528;52.102;5.242;2024-01-10T10:18:23;1.8;;;1.11;;
32451;SDS011;45528;52.102;5.242;2024-01-10T10:21:39;1.0;;;0.9;;
32451;SDS011;45528;52.102;5.242;2024-01-10T10:23:15;2.6;;;1.11;;
32451;SDS011;45528;52.102;5.242;2024-01-10T10:24:53;2.8;;;1.6;;
32451;SDS011;45528;52.102;5.242;2024-01-10T10:28:08;3.5;;;1.2;;
32451;SDS011;45528;52.102;5.242;2024-01-10T10:29:44;5.0;;;1.7;;
32451;SDS011;45528;52.102;5.242;2024-01-10T10:31:20;4.0;;;1.7;;
32451;SDS011;45528;52.102;5.242;2024-01-10T10:32:56;3.7;;;1.9;;
32451;SDS011;45528;52.102;5.242;2024-01-10T10:36:09;5.11;;;1.8;;
32451;SDS011;45528;52.102;5.242;2024-01-10T10:37:48;3.4;;;1.8;;
32451;SDS011;45528;52.102;5.242;2024-01-10T10:39:25;1.3;;;1.11;;
32451;SDS011;45528;52.102;5.242;2024-01-10T10:42:43;3.7;;;1.4;;
32451;SDS011;45528;52.102;5.242;2024-01-10T10:44:23;7.2;;;1.9;;
32451;SDS011;45528;52.102;5.242;2024-01-10T10:46:00;2.0;;;1.3;;
32451;SDS011;45528;52.102;5.242;2024-01-10T10:47:36;7.1;;;2.21;;
32451;SDS011;45528;52.102;5.242;2024-01-10T10:51:03;3.1;;;1.5;;
32451;SDS011;45528;52.102;5.242;2024-01-10T10:52:41;4.7;;;2.1;;
32451;SDS011;45528;52.102;5.242;2024-01-10T10:54:21;2.31;;;1.11;;
32451;SDS011;45528;52.102;5.242;2024-01-10T10:55:58;4.8;;;1.3;;
32451;SDS011;45528;52.102;5.242;2024-01-10T10:59:14;7.2;;;1.7;;
32451;SDS011;45528;52.102;5.242;2024-01-10T11:00:54;2.1;;;1.2;;
32451;SDS011;45528;52.102;5.242;2024-01-10T11:02:32;3.1;;;1.3;;
32451;SDS011;45528;52.102;5.242;2024-01-10T11:05:45;1.4;;;0.9;;
32451;SDS011;45528;52.102;5.242;2024-01-10T11:07:22;2.9;;;1.5;;
32451;SDS011;45528;52.102;5.242;2024-01-10T11:08:59;3.0;;;1.5;;
32451;SDS011;45528;52.102;5.242;2024-01-10T11:10:40;2.4;;;1.11;;
32451;SDS011;45528;52.102;5.242;2024-01-10T11:14:15;4.2;;;1.9;;
32451;SDS011;45528;52.102;5.242;2024-01-10T11:16:08;4.7;;;1.9;;
32451;SDS011;45528;52.102;5.242;2024-01-10T11:18:12;2.9;;;1.6;;
32451;SDS011;45528;52.102;5.242;2024-01-10T11:20:18;2.7;;;1.2;;
32451;SDS011;45528;52.102;5.242;2024-01-10T11:22:10;3.9;;;1.5;;
32451;SDS011;45528;52.102;5.242;2024-01-10T11:24:00;2.9;;;1.4;;
32451;SDS011;45528;52.102;5.242;2024-01-10T11:25:38;3.8;;;1.4;;
32451;SDS011;45528;52.102;5.242;2024-01-10T11:27:15;4.61;;;1.7;;
32451;SDS011;45528;52.102;5.242;2024-01-10T11:30:33;3.1;;;1.4;;
32451;SDS011;45528;52.102;5.242;2024-01-10T11:32:12;2.6;;;2.0;;
32451;SDS011;45528;52.102;5.242;2024-01-10T11:33:50;5.0;;;2.0;;
32451;SDS011;45528;52.102;5.242;2024-01-10T11:37:08;3.3;;;1.6;;
32451;SDS011;45528;52.102;5.242;2024-01-10T11:38:48;7.8;;;2.5;;
32451;SDS011;45528;52.102;5.242;2024-01-10T11:40:45;4.1;;;1.7;;
32451;SDS011;45528;52.102;5.242;2024-01-10T11:42:23;2.4;;;1.5;;
32451;SDS011;45528;52.102;5.242;2024-01-10T11:44:46;4.3;;;2.1;;
32451;SDS011;45528;52.102;5.242;2024-01-10T11:46:23;3.1;;;2.1;;
32451;SDS011;45528;52.102;5.242;2024-01-10T11:49:36;3.4;;;1.7;;
32451;SDS011;45528;52.102;5.242;2024-01-10T11:51:12;3.4;;;1.7;;
32451;SDS011;45528;52.102;5.242;2024-01-10T11:52:52;7.0;;;1.8;;
32451;SDS011;45528;52.102;5.242;2024-01-10T11:54:44;4.8;;;1.8;;
32451;SDS011;45528;52.102;5.242;2024-01-10T11:58:03;2.31;;;1.8;;
32451;SDS011;45528;52.102;5.242;2024-01-10T11:59:44;4.3;;;2.0;;
32451;SDS011;45528;52.102;5.242;2024-01-10T12:01:22;3.3;;;1.4;;
32451;SDS011;45528;52.102;5.242;2024-01-10T12:02:59;9.21;;;2.7;;
32451;SDS011;45528;52.102;5.242;2024-01-10T12:06:11;5.11;;;2.5;;
32451;SDS011;45528;52.102;5.242;2024-01-10T12:07:50;4.7;;;1.8;;
32451;SDS011;45528;52.102;5.242;2024-01-10T12:09:26;11.4;;;3.4;;
32451;SDS011;45528;52.102;5.242;2024-01-10T12:12:39;4.91;;;3.2;;
32451;SDS011;45528;52.102;5.242;2024-01-10T12:14:15;9.31;;;3.5;;
32451;SDS011;45528;52.102;5.242;2024-01-10T12:15:52;4.61;;;2.8;;
32451;SDS011;45528;52.102;5.242;2024-01-10T12:17:28;5.9;;;2.7;;
32451;SDS011;45528;52.102;5.242;2024-01-10T12:20:40;4.5;;;2.31;;
32451;SDS011;45528;52.102;5.242;2024-01-10T12:22:17;5.2;;;2.7;;
32451;SDS011;45528;52.102;5.242;2024-01-10T12:23:53;6.1;;;3.0;;
32451;SDS011;45528;52.102;5.242;2024-01-10T12:27:05;6.2;;;2.4;;
32451;SDS011;45528;52.102;5.242;2024-01-10T12:28:41;6.0;;;2.9;;
32451;SDS011;45528;52.102;5.242;2024-01-10T12:30:29;6.8;;;3.0;;
32451;SDS011;45528;52.102;5.242;2024-01-10T12:32:07;4.5;;;2.4;;
32451;SDS011;45528;52.102;5.242;2024-01-10T12:35:19;4.5;;;2.5;;
32451;SDS011;45528;52.102;5.242;2024-01-10T12:36:55;5.9;;;2.5;;
32451;SDS011;45528;52.102;5.242;2024-01-10T12:38:32;5.9;;;2.6;;
32451;SDS011;45528;52.102;5.242;2024-01-10T12:41:46;5.2;;;3.2;;
32451;SDS011;45528;52.102;5.242;2024-01-10T12:43:23;5.9;;;3.0;;
32451;SDS011;45528;52.102;5.242;2024-01-10T12:48:13;7.9;;;3.1;;
32451;SDS011;45528;52.102;5.242;2024-01-10T12:49:49;5.5;;;2.9;;
32451;SDS011;45528;52.102;5.242;2024-01-10T12:51:26;7.8;;;2.6;;
32451;SDS011;45528;52.102;5.242;2024-01-10T12:53:03;4.61;;;2.21;;
32451;SDS011;45528;52.102;5.242;2024-01-10T12:56:16;6.1;;;2.31;;
32451;SDS011;45528;52.102;5.242;2024-01-10T12:57:52;9.1;;;3.2;;
32451;SDS011;45528;52.102;5.242;2024-01-10T12:59:28;4.2;;;2.4;;